sensor_id;sensor_type;location;lat;lon;timestamp;pressure;altitude;pressure_sealevel;temperature;humidity
10992;BME280;5549;47.028;15.514;2023-02-13T00:01:04;98571.03;;;5.32;55.42
10992;BME280;5549;47.028;15.514;2023-02-13T00:03:35;98569.28;;;5.33;55.40
10992;BME280;5549;47.028;15.514;2023-02-13T00:06:03;98567.84;;;5.23;56.17
10992;BME280;5549;47.028;15.514;2023-02-13T00:08:31;98566.91;;;5.25;55.35
10992;BME280;5549;47.028;15.514;2023-02-13T00:11:01;98567.25;;;5.13;56.28
10992;BME280;5549;47.028;15.514;2023-02-13T00:13:28;98565.34;;;5.18;56.41
10992;BME280;5549;47.028;15.514;2023-02-13T00:15:57;98565.34;;;5.18;56.11
10992;BME280;5549;47.028;15.514;2023-02-13T00:18:27;98558.47;;;5.15;57.21
10992;BME280;5549;47.028;15.514;2023-02-13T00:21:02;98574.16;;;5.14;56.64
10992;BME280;5549;47.028;15.514;2023-02-13T00:23:34;98572.53;;;5.10;56.75
10992;BME280;5549;47.028;15.514;2023-02-13T00:26:06;98577.97;;;5.02;57.35
10992;BME280;5549;47.028;15.514;2023-02-13T00:28:34;98571.56;;;4.84;58.86
10992;BME280;5549;47.028;15.514;2023-02-13T00:31:04;98569.47;;;4.97;58.67
10992;BME280;5549;47.028;15.514;2023-02-13T00:33:32;98564.06;;;5.03;57.33
10992;BME280;5549;47.028;15.514;2023-02-13T00:36:07;98567.44;;;5.07;56.16
10992;BME280;5549;47.028;15.514;2023-02-13T00:38:36;98568.13;;;5.12;55.85
10992;BME280;5549;47.028;15.514;2023-02-13T00:41:04;98555.97;;;5.12;57.53
10992;BME280;5549;47.028;15.514;2023-02-13T00:43:33;98567.34;;;5.10;57.22
10992;BME280;5549;47.028;15.514;2023-02-13T00:46:01;98577.19;;;5.00;57.47
10992;BME280;5549;47.028;15.514;2023-02-13T00:48:31;98568.38;;;5.04;57.17
10992;BME280;5549;47.028;15.514;2023-02-13T00:51:02;98564.91;;;5.04;57.46
10992;BME280;5549;47.028;15.514;2023-02-13T00:53:34;98571.28;;;4.94;57.02
10992;BME280;5549;47.028;15.514;2023-02-13T00:56:04;98578.13;;;4.98;56.61
10992;BME280;5549;47.028;15.514;2023-02-13T00:58:32;98571.28;;;4.94;56.86
10992;BME280;5549;47.028;15.514;2023-02-13T01:01:00;98575.59;;;4.95;56.69
10992;BME280;5549;47.028;15.514;2023-02-13T01:03:27;98572.19;;;4.93;56.47
10992;BME280;5549;47.028;15.514;2023-02-13T01:05:56;98579.28;;;4.88;56.55
10992;BME280;5549;47.028;15.514;2023-02-13T01:08:23;98583.59;;;4.89;56.29
10992;BME280;5549;47.028;15.514;2023-02-13T01:10:55;98583.66;;;4.56;58.07
10992;BME280;5549;47.028;15.514;2023-02-13T01:13:25;98582.31;;;4.41;58.70
10992;BME280;5549;47.028;15.514;2023-02-13T01:15:56;98575.34;;;4.43;57.93
10992;BME280;5549;47.028;15.514;2023-02-13T01:18:23;98578.16;;;4.36;58.64
10992;BME280;5549;47.028;15.514;2023-02-13T01:21:00;98565.25;;;4.31;58.58
10992;BME280;5549;47.028;15.514;2023-02-13T01:23:31;98569.81;;;4.23;58.97
10992;BME280;5549;47.028;15.514;2023-02-13T01:26:02;98566.38;;;4.23;58.01
10992;BME280;5549;47.028;15.514;2023-02-13T01:28:33;98560.44;;;4.17;59.01
10992;BME280;5549;47.028;15.514;2023-02-13T01:31:01;98563.03;;;4.17;59.02
10992;BME280;5549;47.028;15.514;2023-02-13T01:33:29;98568.47;;;4.08;59.48
10992;BME280;5549;47.028;15.514;2023-02-13T01:35:57;98568.56;;;4.05;59.34
10992;BME280;5549;47.028;15.514;2023-02-13T01:38:25;98559.78;;;4.09;59.43
10992;BME280;5549;47.028;15.514;2023-02-13T01:40:54;98560.75;;;4.05;60.04
10992;BME280;5549;47.028;15.514;2023-02-13T01:43:23;98569.44;;;4.04;59.96
10992;BME280;5549;47.028;15.514;2023-02-13T01:45:54;98565.91;;;4.07;59.24
10992;BME280;5549;47.028;15.514;2023-02-13T01:48:26;98559.81;;;4.08;58.78
10992;BME280;5549;47.028;15.514;2023-02-13T01:50:58;98558.00;;;4.11;58.25
10992;BME280;5549;47.028;15.514;2023-02-13T01:53:29;98558.00;;;4.11;58.81
10992;BME280;5549;47.028;15.514;2023-02-13T01:56:04;98559.63;;;4.15;58.81
10992;BME280;5549;47.028;15.514;2023-02-13T01:58:39;98556.97;;;4.17;58.96
10992;BME280;5549;47.028;15.514;2023-02-13T02:01:09;98560.44;;;4.17;58.25
10992;BME280;5549;47.028;15.514;2023-02-13T02:03:42;98556.03;;;4.19;57.76
10992;BME280;5549;47.028;15.514;2023-02-13T02:06:16;98556.03;;;4.19;58.30
10992;BME280;5549;47.028;15.514;2023-02-13T02:08:47;98548.19;;;4.21;58.50
10992;BME280;5549;47.028;15.514;2023-02-13T02:11:21;98543.94;;;4.18;58.96
10992;BME280;5549;47.028;15.514;2023-02-13T02:13:53;98549.19;;;4.17;58.79
10992;BME280;5549;47.028;15.514;2023-02-13T02:16:24;98546.75;;;4.11;59.26
10992;BME280;5549;47.028;15.514;2023-02-13T02:18:53;98546.22;;;3.98;59.84
10992;BME280;5549;47.028;15.514;2023-02-13T02:21:56;98559.16;;;4.00;59.37
10992;BME280;5549;47.028;15.514;2023-02-13T02:25:42;98556.00;;;3.89;59.93
10992;BME280;5549;47.028;15.514;2023-02-13T02:28:53;98550.19;;;3.79;61.00
10992;BME280;5549;47.028;15.514;2023-02-13T02:32:16;98551.72;;;3.86;60.36
10992;BME280;5549;47.028;15.514;2023-02-13T02:34:55;98549.91;;;3.90;60.30
10992;BME280;5549;47.028;15.514;2023-02-13T02:37:43;98550.13;;;3.80;61.62
10992;BME280;5549;47.028;15.514;2023-02-13T02:40:24;98557.09;;;3.80;61.52
10992;BME280;5549;47.028;15.514;2023-02-13T02:43:22;98556.16;;;3.82;60.80
10992;BME280;5549;47.028;15.514;2023-02-13T02:46:03;98554.59;;;3.75;61.83
10992;BME280;5549;47.028;15.514;2023-02-13T02:48:43;98554.44;;;3.81;61.57
10992;BME280;5549;47.028;15.514;2023-02-13T02:51:38;98550.31;;;3.73;61.77
10992;BME280;5549;47.028;15.514;2023-02-13T02:54:12;98554.03;;;3.63;64.01
10992;BME280;5549;47.028;15.514;2023-02-13T02:57:05;98554.75;;;3.69;64.07
10992;BME280;5549;47.028;15.514;2023-02-13T02:59:35;98547.50;;;3.82;62.25
10992;BME280;5549;47.028;15.514;2023-02-13T03:02:21;98541.56;;;3.77;62.49
10992;BME280;5549;47.028;15.514;2023-02-13T03:05:17;98548.34;;;3.82;62.55
10992;BME280;5549;47.028;15.514;2023-02-13T03:08:10;98552.66;;;3.83;62.81
10992;BME280;5549;47.028;15.514;2023-02-13T03:10:38;98555.09;;;3.90;61.82
10992;BME280;5549;47.028;15.514;2023-02-13T03:13:38;98545.44;;;3.95;60.73
10992;BME280;5549;47.028;15.514;2023-02-13T03:16:14;98550.56;;;3.98;60.77
10992;BME280;5549;47.028;15.514;2023-02-13T03:19:03;98549.63;;;4.00;60.77
10992;BME280;5549;47.028;15.514;2023-02-13T03:21:56;98544.44;;;4.00;60.46
10992;BME280;5549;47.028;15.514;2023-02-13T03:24:49;98541.72;;;4.05;62.24
10992;BME280;5549;47.028;15.514;2023-02-13T03:27:32;98535.69;;;4.03;61.78
10992;BME280;5549;47.028;15.514;2023-02-13T03:30:27;98534.72;;;4.07;61.04
10992;BME280;5549;47.028;15.514;2023-02-13T03:33:12;98540.84;;;4.04;61.28
10992;BME280;5549;47.028;15.514;2023-02-13T03:35:49;98530.44;;;4.04;61.40
10992;BME280;5549;47.028;15.514;2023-02-13T03:38:45;98534.84;;;4.02;61.86
10992;BME280;5549;47.028;15.514;2023-02-13T03:41:20;98528.59;;;4.09;61.34
10992;BME280;5549;47.028;15.514;2023-02-13T03:43:55;98528.50;;;4.12;60.91
10992;BME280;5549;47.028;15.514;2023-02-13T03:46:27;98525.81;;;4.15;60.50
10992;BME280;5549;47.028;15.514;2023-02-13T03:49:03;98530.94;;;4.18;60.24
10992;BME280;5549;47.028;15.514;2023-02-13T03:51:54;98524.84;;;4.19;60.01
10992;BME280;5549;47.028;15.514;2023-02-13T03:54:27;98522.19;;;4.21;60.02
10992;BME280;5549;47.028;15.514;2023-02-13T03:57:18;98524.81;;;4.21;59.83
10992;BME280;5549;47.028;15.514;2023-02-13T04:00:09;98521.25;;;4.24;59.82
10992;BME280;5549;47.028;15.514;2023-02-13T04:03:00;98516.31;;;4.14;60.70
10992;BME280;5549;47.028;15.514;2023-02-13T04:05:39;98524.84;;;4.19;60.69
10992;BME280;5549;47.028;15.514;2023-02-13T04:08:08;98526.53;;;4.21;60.88
10992;BME280;5549;47.028;15.514;2023-02-13T04:10:48;98517.84;;;4.22;61.57
10992;BME280;5549;47.028;15.514;2023-02-13T04:13:21;98527.31;;;4.24;60.88
10992;BME280;5549;47.028;15.514;2023-02-13T04:15:57;98525.47;;;4.28;61.25
10992;BME280;5549;47.028;15.514;2023-02-13T04:18:30;98531.06;;;4.14;62.03
10992;BME280;5549;47.028;15.514;2023-02-13T04:21:01;98527.53;;;4.16;61.61
10992;BME280;5549;47.028;15.514;2023-02-13T04:23:29;98519.88;;;4.10;61.25
10992;BME280;5549;47.028;15.514;2023-02-13T04:26:01;98520.13;;;4.01;61.50
10992;BME280;5549;47.028;15.514;2023-02-13T04:28:29;98516.88;;;3.93;61.93
10992;BME280;5549;47.028;15.514;2023-02-13T04:30:59;98515.19;;;3.92;61.73
10992;BME280;5549;47.028;15.514;2023-02-13T04:33:27;98515.25;;;3.89;61.38
10992;BME280;5549;47.028;15.514;2023-02-13T04:35:57;98517.94;;;3.86;61.23
10992;BME280;5549;47.028;15.514;2023-02-13T04:38:25;98517.97;;;3.84;60.75
10992;BME280;5549;47.028;15.514;2023-02-13T04:40:55;98518.91;;;3.82;60.49
10992;BME280;5549;47.028;15.514;2023-02-13T04:43:24;98515.59;;;3.77;60.46
10992;BME280;5549;47.028;15.514;2023-02-13T04:45:51;98515.75;;;3.71;60.16
10992;BME280;5549;47.028;15.514;2023-02-13T04:48:19;98516.63;;;3.70;59.83
10992;BME280;5549;47.028;15.514;2023-02-13T04:50:46;98523.59;;;3.68;59.51
10992;BME280;5549;47.028;15.514;2023-02-13T04:53:16;98521.97;;;3.64;59.69
10992;BME280;5549;47.028;15.514;2023-02-13T04:55:43;98524.69;;;3.59;59.45
10992;BME280;5549;47.028;15.514;2023-02-13T04:58:11;98519.53;;;3.58;59.33
10992;BME280;5549;47.028;15.514;2023-02-13T05:00:40;98530.94;;;3.52;59.96
10992;BME280;5549;47.028;15.514;2023-02-13T05:03:11;98522.38;;;3.48;61.02
10992;BME280;5549;47.028;15.514;2023-02-13T05:05:39;98528.78;;;3.32;62.05
10992;BME280;5549;47.028;15.514;2023-02-13T05:08:07;98526.31;;;3.26;62.57
10992;BME280;5549;47.028;15.514;2023-02-13T05:10:35;98530.78;;;3.21;62.35
10992;BME280;5549;47.028;15.514;2023-02-13T05:13:03;98528.25;;;3.18;62.68
10992;BME280;5549;47.028;15.514;2023-02-13T05:15:30;98523.25;;;3.10;64.38
10992;BME280;5549;47.028;15.514;2023-02-13T05:17:59;98530.16;;;3.10;63.65
10992;BME280;5549;47.028;15.514;2023-02-13T05:20:27;98525.78;;;3.12;63.10
10992;BME280;5549;47.028;15.514;2023-02-13T05:22:54;98522.31;;;3.13;62.39
10992;BME280;5549;47.028;15.514;2023-02-13T05:25:48;98522.25;;;3.16;61.85
10992;BME280;5549;47.028;15.514;2023-02-13T05:28:16;98519.56;;;3.19;61.54
10992;BME280;5549;47.028;15.514;2023-02-13T05:31:00;98520.38;;;3.21;61.76
10992;BME280;5549;47.028;15.514;2023-02-13T05:33:31;98516.88;;;3.23;61.51
10992;BME280;5549;47.028;15.514;2023-02-13T05:35:59;98516.84;;;3.25;61.89
10992;BME280;5549;47.028;15.514;2023-02-13T05:38:27;98518.69;;;3.20;62.52
10992;BME280;5549;47.028;15.514;2023-02-13T05:40:54;98517.91;;;3.16;63.40
10992;BME280;5549;47.028;15.514;2023-02-13T05:43:24;98524.94;;;3.11;63.36
10992;BME280;5549;47.028;15.514;2023-02-13T05:46:01;98519.59;;;3.17;63.33
10992;BME280;5549;47.028;15.514;2023-02-13T05:48:31;98519.56;;;3.19;62.86
10992;BME280;5549;47.028;15.514;2023-02-13T05:50:58;98527.38;;;3.19;62.53
10992;BME280;5549;47.028;15.514;2023-02-13T05:53:26;98523.00;;;3.21;62.54
10992;BME280;5549;47.028;15.514;2023-02-13T05:55:54;98522.94;;;3.22;61.99
10992;BME280;5549;47.028;15.514;2023-02-13T05:58:22;98521.13;;;3.26;62.23
10992;BME280;5549;47.028;15.514;2023-02-13T06:00:49;98522.06;;;3.23;62.14
10992;BME280;5549;47.028;15.514;2023-02-13T06:03:17;98527.22;;;3.25;61.91
10992;BME280;5549;47.028;15.514;2023-02-13T06:05:46;98526.38;;;3.25;62.80
10992;BME280;5549;47.028;15.514;2023-02-13T06:08:13;98522.06;;;3.23;63.20
10992;BME280;5549;47.028;15.514;2023-02-13T06:10:41;98523.03;;;3.19;62.95
10992;BME280;5549;47.028;15.514;2023-02-13T06:13:10;98529.06;;;3.20;62.51
10992;BME280;5549;47.028;15.514;2023-02-13T06:15:39;98525.88;;;3.09;63.36
10992;BME280;5549;47.028;15.514;2023-02-13T06:18:07;98532.13;;;3.00;64.56
10992;BME280;5549;47.028;15.514;2023-02-13T06:20:35;98534.53;;;3.08;63.92
10992;BME280;5549;47.028;15.514;2023-02-13T06:23:06;98528.28;;;3.16;63.44
10992;BME280;5549;47.028;15.514;2023-02-13T06:25:36;98527.28;;;3.22;63.46
10992;BME280;5549;47.028;15.514;2023-02-13T06:28:04;98541.09;;;3.24;63.48
10992;BME280;5549;47.028;15.514;2023-02-13T06:30:32;98541.94;;;3.25;63.32
10992;BME280;5549;47.028;15.514;2023-02-13T06:33:00;98536.66;;;3.29;63.61
10992;BME280;5549;47.028;15.514;2023-02-13T06:35:27;98542.66;;;3.31;63.41
10992;BME280;5549;47.028;15.514;2023-02-13T06:37:55;98542.50;;;3.37;63.24
10992;BME280;5549;47.028;15.514;2023-02-13T06:40:25;98544.09;;;3.43;63.29
10992;BME280;5549;47.028;15.514;2023-02-13T06:42:52;98542.84;;;3.61;62.81
10992;BME280;5549;47.028;15.514;2023-02-13T06:45:19;98543.94;;;3.86;62.14
10992;BME280;5549;47.028;15.514;2023-02-13T06:47:48;98545.97;;;4.07;61.21
10992;BME280;5549;47.028;15.514;2023-02-13T06:50:17;98549.25;;;4.14;60.69
10992;BME280;5549;47.028;15.514;2023-02-13T06:52:46;98552.91;;;4.39;59.74
10992;BME280;5549;47.028;15.514;2023-02-13T06:55:14;98553.78;;;4.69;58.89
10992;BME280;5549;47.028;15.514;2023-02-13T06:57:46;98547.09;;;4.90;57.91
10992;BME280;5549;47.028;15.514;2023-02-13T07:00:16;98547.31;;;5.12;57.56
10992;BME280;5549;47.028;15.514;2023-02-13T07:02:45;98542.47;;;5.29;56.38
10992;BME280;5549;47.028;15.514;2023-02-13T07:05:14;98546.50;;;5.66;57.73
10992;BME280;5549;47.028;15.514;2023-02-13T07:07:42;98549.66;;;6.27;62.11
10992;BME280;5549;47.028;15.514;2023-02-13T07:10:11;98542.56;;;6.79;62.81
10992;BME280;5549;47.028;15.514;2023-02-13T07:12:41;98538.78;;;7.32;61.39
10992;BME280;5549;47.028;15.514;2023-02-13T07:15:11;98541.88;;;7.84;60.54
10992;BME280;5549;47.028;15.514;2023-02-13T07:17:41;98547.63;;;8.34;58.38
10992;BME280;5549;47.028;15.514;2023-02-13T07:20:09;98536.84;;;8.81;56.93
10992;BME280;5549;47.028;15.514;2023-02-13T07:22:37;98529.53;;;9.25;55.31
10992;BME280;5549;47.028;15.514;2023-02-13T07:25:06;98523.44;;;9.61;52.82
10992;BME280;5549;47.028;15.514;2023-02-13T07:27:34;98512.81;;;9.98;51.26
10992;BME280;5549;47.028;15.514;2023-02-13T07:30:01;98517.63;;;10.25;49.20
10992;BME280;5549;47.028;15.514;2023-02-13T07:32:32;98518.31;;;10.46;48.39
10992;BME280;5549;47.028;15.514;2023-02-13T07:35:00;98516.16;;;10.70;47.10
10992;BME280;5549;47.028;15.514;2023-02-13T07:37:28;98515.34;;;11.01;47.05
10992;BME280;5549;47.028;15.514;2023-02-13T07:39:55;98513.56;;;11.17;46.62
10992;BME280;5549;47.028;15.514;2023-02-13T07:42:23;98514.00;;;11.41;46.33
10992;BME280;5549;47.028;15.514;2023-02-13T07:44:50;98517.84;;;11.65;46.43
10992;BME280;5549;47.028;15.514;2023-02-13T07:47:18;98519.00;;;11.91;45.43
10992;BME280;5549;47.028;15.514;2023-02-13T07:49:47;98511.41;;;12.16;44.43
10992;BME280;5549;47.028;15.514;2023-02-13T07:52:17;98513.09;;;12.17;42.21
10992;BME280;5549;47.028;15.514;2023-02-13T07:54:47;98511.03;;;11.93;41.50
10992;BME280;5549;47.028;15.514;2023-02-13T07:57:16;98507.81;;;11.72;41.28
10992;BME280;5549;47.028;15.514;2023-02-13T07:59:44;98505.00;;;11.45;41.94
10992;BME280;5549;47.028;15.514;2023-02-13T08:02:15;98507.91;;;11.09;43.09
10992;BME280;5549;47.028;15.514;2023-02-13T08:04:43;98500.94;;;10.92;44.24
10992;BME280;5549;47.028;15.514;2023-02-13T08:07:14;98510.78;;;11.04;44.38
10992;BME280;5549;47.028;15.514;2023-02-13T08:09:43;98503.66;;;11.06;43.20
10992;BME280;5549;47.028;15.514;2023-02-13T08:12:30;98497.88;;;11.15;43.55
10992;BME280;5549;47.028;15.514;2023-02-13T08:14:58;98497.38;;;11.24;43.09
10992;BME280;5549;47.028;15.514;2023-02-13T08:17:25;98503.06;;;11.33;43.65
10992;BME280;5549;47.028;15.514;2023-02-13T08:19:55;98503.28;;;11.44;42.64
10992;BME280;5549;47.028;15.514;2023-02-13T08:22:24;98497.16;;;11.59;42.50
10992;BME280;5549;47.028;15.514;2023-02-13T08:24:54;98491.84;;;11.75;42.32
10992;BME280;5549;47.028;15.514;2023-02-13T08:27:21;98490.38;;;12.01;42.87
10992;BME280;5549;47.028;15.514;2023-02-13T08:29:49;98491.19;;;12.17;41.65
10992;BME280;5549;47.028;15.514;2023-02-13T08:32:17;98496.53;;;12.15;41.92
10992;BME280;5549;47.028;15.514;2023-02-13T08:34:44;98495.91;;;12.40;41.15
10992;BME280;5549;47.028;15.514;2023-02-13T08:37:12;98494.03;;;12.71;41.23
10992;BME280;5549;47.028;15.514;2023-02-13T08:39:43;98482.44;;;12.88;40.57
10992;BME280;5549;47.028;15.514;2023-02-13T08:42:11;98484.41;;;12.84;40.60
10992;BME280;5549;47.028;15.514;2023-02-13T08:44:40;98483.00;;;12.93;39.74
10992;BME280;5549;47.028;15.514;2023-02-13T08:47:08;98484.97;;;12.89;40.80
10992;BME280;5549;47.028;15.514;2023-02-13T08:49:36;98485.63;;;12.93;40.67
10992;BME280;5549;47.028;15.514;2023-02-13T08:52:04;98491.53;;;13.10;40.00
10992;BME280;5549;47.028;15.514;2023-02-13T08:54:34;98482.03;;;13.08;39.41
10992;BME280;5549;47.028;15.514;2023-02-13T08:57:03;98479.81;;;12.59;39.45
10992;BME280;5549;47.028;15.514;2023-02-13T08:59:30;98483.75;;;12.80;39.91
10992;BME280;5549;47.028;15.514;2023-02-13T09:01:58;98486.47;;;12.93;40.59
10992;BME280;5549;47.028;15.514;2023-02-13T09:04:25;98482.13;;;13.06;40.23
10992;BME280;5549;47.028;15.514;2023-02-13T09:06:53;98483.25;;;13.16;40.28
10992;BME280;5549;47.028;15.514;2023-02-13T09:09:21;98491.16;;;13.16;40.54
10992;BME280;5549;47.028;15.514;2023-02-13T09:11:48;98488.69;;;13.28;39.70
10992;BME280;5549;47.028;15.514;2023-02-13T09:14:18;98499.50;;;13.37;40.50
10992;BME280;5549;47.028;15.514;2023-02-13T09:16:47;98493.94;;;13.42;39.68
10992;BME280;5549;47.028;15.514;2023-02-13T09:19:15;98501.28;;;13.37;40.14
10992;BME280;5549;47.028;15.514;2023-02-13T09:21:42;98495.31;;;13.06;39.86
10992;BME280;5549;47.028;15.514;2023-02-13T09:24:10;98497.66;;;13.11;40.13
10992;BME280;5549;47.028;15.514;2023-02-13T09:26:38;98507.25;;;13.26;39.89
10992;BME280;5549;47.028;15.514;2023-02-13T09:29:05;98508.63;;;12.76;39.68
10992;BME280;5549;47.028;15.514;2023-02-13T09:31:34;98510.97;;;12.81;40.53
10992;BME280;5549;47.028;15.514;2023-02-13T09:34:02;98510.41;;;12.47;39.78
10992;BME280;5549;47.028;15.514;2023-02-13T09:36:31;98517.09;;;12.09;41.35
10992;BME280;5549;47.028;15.514;2023-02-13T09:39:01;98525.16;;;12.06;41.88
10992;BME280;5549;47.028;15.514;2023-02-13T09:41:33;98522.88;;;12.15;41.49
10992;BME280;5549;47.028;15.514;2023-02-13T09:44:06;98523.94;;;12.27;41.79
10992;BME280;5549;47.028;15.514;2023-02-13T09:46:39;98527.44;;;12.12;41.37
10992;BME280;5549;47.028;15.514;2023-02-13T09:49:13;98522.41;;;11.93;41.78
10992;BME280;5549;47.028;15.514;2023-02-13T09:51:42;98522.00;;;11.85;41.85
10992;BME280;5549;47.028;15.514;2023-02-13T09:54:15;98524.94;;;11.95;43.19
10992;BME280;5549;47.028;15.514;2023-02-13T09:56:50;98522.59;;;11.74;42.41
10992;BME280;5549;47.028;15.514;2023-02-13T09:59:42;98528.44;;;11.95;41.72
10992;BME280;5549;47.028;15.514;2023-02-13T10:02:35;98531.16;;;11.94;41.16
10992;BME280;5549;47.028;15.514;2023-02-13T10:05:20;98537.41;;;12.37;41.09
10992;BME280;5549;47.028;15.514;2023-02-13T10:07:56;98529.00;;;11.07;43.10
10992;BME280;5549;47.028;15.514;2023-02-13T10:10:35;98527.97;;;12.03;43.39
10992;BME280;5549;47.028;15.514;2023-02-13T10:13:23;98518.91;;;11.47;42.67
10992;BME280;5549;47.028;15.514;2023-02-13T10:16:02;98519.84;;;11.46;43.81
10992;BME280;5549;47.028;15.514;2023-02-13T10:18:44;98512.41;;;11.68;42.68
10992;BME280;5549;47.028;15.514;2023-02-13T10:21:14;98504.59;;;11.82;42.28
10992;BME280;5549;47.028;15.514;2023-02-13T10:23:48;98503.69;;;11.68;42.59
10992;BME280;5549;47.028;15.514;2023-02-13T10:26:20;98506.69;;;11.46;43.69
10992;BME280;5549;47.028;15.514;2023-02-13T10:28:57;98506.47;;;11.80;42.87
10992;BME280;5549;47.028;15.514;2023-02-13T10:31:47;98506.22;;;11.69;42.08
10992;BME280;5549;47.028;15.514;2023-02-13T10:34:17;98504.38;;;12.01;43.40
10992;BME280;5549;47.028;15.514;2023-02-13T10:36:50;98497.31;;;12.02;41.67
10992;BME280;5549;47.028;15.514;2023-02-13T10:39:23;98495.84;;;11.82;41.03
10992;BME280;5549;47.028;15.514;2023-02-13T10:41:54;98498.44;;;11.98;41.35
10992;BME280;5549;47.028;15.514;2023-02-13T10:44:41;98496.44;;;11.71;41.53
10992;BME280;5549;47.028;15.514;2023-02-13T10:47:25;98492.97;;;11.71;41.81
10992;BME280;5549;47.028;15.514;2023-02-13T10:50:13;98493.00;;;11.55;42.87
10992;BME280;5549;47.028;15.514;2023-02-13T10:52:53;98494.41;;;11.76;41.80
10992;BME280;5549;47.028;15.514;2023-02-13T10:56:06;98498.81;;;11.92;41.60
10992;BME280;5549;47.028;15.514;2023-02-13T10:58:49;98492.88;;;11.88;43.22
10992;BME280;5549;47.028;15.514;2023-02-13T11:01:26;98486.13;;;12.57;43.90
10992;BME280;5549;47.028;15.514;2023-02-13T11:04:09;98480.19;;;12.67;40.51
10992;BME280;5549;47.028;15.514;2023-02-13T11:06:47;98478.13;;;12.72;40.75
10992;BME280;5549;47.028;15.514;2023-02-13T11:09:17;98482.13;;;13.06;40.49
10992;BME280;5549;47.028;15.514;2023-02-13T11:11:45;98474.09;;;13.22;39.20
10992;BME280;5549;47.028;15.514;2023-02-13T11:14:15;98476.75;;;13.08;38.37
10992;BME280;5549;47.028;15.514;2023-02-13T11:16:56;98479.78;;;11.86;40.62
10992;BME280;5549;47.028;15.514;2023-02-13T11:19:33;98472.38;;;12.37;40.26
10992;BME280;5549;47.028;15.514;2023-02-13T11:22:07;98476.16;;;12.33;40.53
10992;BME280;5549;47.028;15.514;2023-02-13T11:24:36;98480.59;;;12.03;40.54
10992;BME280;5549;47.028;15.514;2023-02-13T11:27:11;98475.38;;;11.87;41.26
10992;BME280;5549;47.028;15.514;2023-02-13T11:29:54;98472.84;;;11.70;41.98
10992;BME280;5549;47.028;15.514;2023-02-13T11:32:23;98465.63;;;12.03;41.04
10992;BME280;5549;47.028;15.514;2023-02-13T11:34:54;98467.75;;;11.82;41.19
10992;BME280;5549;47.028;15.514;2023-02-13T11:37:28;98458.63;;;12.18;40.98
10992;BME280;5549;47.028;15.514;2023-02-13T11:39:58;98455.97;;;12.89;41.08
10992;BME280;5549;47.028;15.514;2023-02-13T11:42:30;98459.41;;;12.48;39.40
10992;BME280;5549;47.028;15.514;2023-02-13T11:45:05;98464.00;;;12.31;39.47
10992;BME280;5549;47.028;15.514;2023-02-13T11:47:39;98452.34;;;12.63;39.72
10992;BME280;5549;47.028;15.514;2023-02-13T11:50:21;98443.59;;;12.48;40.60
10992;BME280;5549;47.028;15.514;2023-02-13T11:52:58;98451.41;;;12.50;39.87
10992;BME280;5549;47.028;15.514;2023-02-13T11:55:31;98451.59;;;13.02;39.10
10992;BME280;5549;47.028;15.514;2023-02-13T11:58:02;98435.94;;;13.13;38.51
10992;BME280;5549;47.028;15.514;2023-02-13T12:00:34;98435.56;;;13.20;38.24
10992;BME280;5549;47.028;15.514;2023-02-13T12:03:27;98437.53;;;12.75;39.11
10992;BME280;5549;47.028;15.514;2023-02-13T12:06:05;98447.31;;;12.87;38.91
10992;BME280;5549;47.028;15.514;2023-02-13T12:08:43;98438.56;;;13.13;38.77
10992;BME280;5549;47.028;15.514;2023-02-13T12:11:21;98433.38;;;13.53;38.03
10992;BME280;5549;47.028;15.514;2023-02-13T12:13:52;98429.28;;;13.74;37.66
10992;BME280;5549;47.028;15.514;2023-02-13T12:16:29;98430.22;;;14.26;36.88
10992;BME280;5549;47.028;15.514;2023-02-13T12:19:02;98423.34;;;13.58;37.09
10992;BME280;5549;47.028;15.514;2023-02-13T12:21:57;98428.88;;;13.14;37.80
10992;BME280;5549;47.028;15.514;2023-02-13T12:24:45;98423.13;;;13.22;38.36
10992;BME280;5549;47.028;15.514;2023-02-13T12:27:22;98420.81;;;13.57;38.74
10992;BME280;5549;47.028;15.514;2023-02-13T12:30:35;98407.75;;;13.80;37.92
10992;BME280;5549;47.028;15.514;2023-02-13T12:33:23;98418.19;;;13.69;37.33
10992;BME280;5549;47.028;15.514;2023-02-13T12:35:57;98415.06;;;13.37;37.80
10992;BME280;5549;47.028;15.514;2023-02-13T12:38:42;98416.47;;;13.02;38.32
10992;BME280;5549;47.028;15.514;2023-02-13T12:41:17;98410.63;;;13.38;38.36
10992;BME280;5549;47.028;15.514;2023-02-13T12:44:36;98401.00;;;13.76;37.43
10992;BME280;5549;47.028;15.514;2023-02-13T12:47:15;98403.16;;;13.97;36.90
10992;BME280;5549;47.028;15.514;2023-02-13T12:50:26;98404.91;;;13.31;37.42
10992;BME280;5549;47.028;15.514;2023-02-13T12:53:23;98391.81;;;13.30;37.55
10992;BME280;5549;47.028;15.514;2023-02-13T12:56:26;98392.03;;;13.39;37.76
10992;BME280;5549;47.028;15.514;2023-02-13T12:59:04;98401.56;;;12.74;38.55
10992;BME280;5549;47.028;15.514;2023-02-13T13:02:22;98395.13;;;12.37;40.12
10992;BME280;5549;47.028;15.514;2023-02-13T13:05:07;98392.56;;;12.49;39.58
10992;BME280;5549;47.028;15.514;2023-02-13T13:08:04;98392.34;;;12.67;39.44
10992;BME280;5549;47.028;15.514;2023-02-13T13:10:46;98393.22;;;12.67;39.18
10992;BME280;5549;47.028;15.514;2023-02-13T13:16:22;98390.28;;;12.72;39.44
10992;BME280;5549;47.028;15.514;2023-02-13T13:19:02;98394.06;;;12.68;39.29
10992;BME280;5549;47.028;15.514;2023-02-13T13:21:40;98385.44;;;12.37;39.34
10992;BME280;5549;47.028;15.514;2023-02-13T13:24:28;98386.91;;;12.56;39.37
10992;BME280;5549;47.028;15.514;2023-02-13T13:26:59;98392.34;;;12.67;39.45
10992;BME280;5549;47.028;15.514;2023-02-13T13:29:43;98388.81;;;12.39;39.74
10992;BME280;5549;47.028;15.514;2023-02-13T13:32:17;98386.34;;;11.79;40.92
10992;BME280;5549;47.028;15.514;2023-02-13T13:34:47;98392.88;;;11.72;41.17
10992;BME280;5549;47.028;15.514;2023-02-13T13:37:22;98394.38;;;11.76;41.43
10992;BME280;5549;47.028;15.514;2023-02-13T13:39:57;98387.88;;;12.55;40.76
10992;BME280;5549;47.028;15.514;2023-02-13T13:42:37;98385.31;;;12.94;39.58
10992;BME280;5549;47.028;15.514;2023-02-13T13:45:21;98388.00;;;12.80;39.14
10992;BME280;5549;47.028;15.514;2023-02-13T13:48:17;98389.81;;;12.65;39.31